Pura Vida — J8Y4106 — position and weather

sailwx.info

Track history (hours):
 
Tides and Currents Weather Stations Pressure Air Temp Water Temp Dewpoint Dewpoint Depression Visibility Wind Speed Wind Dir Waves Ship Positions

Pura Vida

Last reported at 2018-Jun-02 20:14 UTC. Time now 2018-Jun-24 09:20 UTC.
Position N 25°57' W 080°08'.
Warning: this ship's position is 21 days out of date.

Length 24 m.

Type: Pleasure craft. MMSI: 376502000.

Date/timePositionNaut miles runAvg speedWind from/ knotsBaromVisibWave heightAir tempDewpointWater temp
2018-Jun-02 20:14N 25°57' W 080°08'0 0.8
2018-Jun-02 20:00N 25°57' W 080°08'3 5.1
2018-Jun-02 19:30N 25°59' W 080°07'2 3.1
2018-Jun-02 19:00N 26°01' W 080°07'1 2.0
2018-Jun-02 18:22N 26°02' W 080°07'1 3.2
2018-Jun-02 18:00N 26°03' W 080°07'2 4.7
2018-Jun-02 17:30N 26°06' W 080°06'510.8
2018-Jun-02 17:00N 26°01' W 080°04'713.9
2018-Jun-02 16:30N 25°54' W 080°06'3 5.2
2018-Jun-02 16:00N 25°57' W 080°08'  
Track history (hours):
 
Tides and Currents Weather Stations Pressure Air Temp Water Temp Dewpoint Dewpoint Depression Visibility Wind Speed Wind Dir Waves Ship Positions

Pura Vida

Last reported at 2018-Jun-02 20:14 UTC. Time now 2018-Jun-24 09:20 UTC.
Position N 25°57' W 080°08'.
Warning: this ship's position is 21 days out of date.

Length 24 m.

Type: Pleasure craft. MMSI: 376502000.

Date/timePositionNaut miles runAvg speedWind from/ knotsBaromVisibWave heightAir tempDewpointWater temp
2018-Jun-02 20:14N 25°57' W 080°08'0 0.8
2018-Jun-02 20:00N 25°57' W 080°08'3 5.1
2018-Jun-02 19:30N 25°59' W 080°07'2 3.1
2018-Jun-02 19:00N 26°01' W 080°07'1 2.0
2018-Jun-02 18:22N 26°02' W 080°07'1 3.2
2018-Jun-02 18:00N 26°03' W 080°07'2 4.7
2018-Jun-02 17:30N 26°06' W 080°06'510.8
2018-Jun-02 17:00N 26°01' W 080°04'713.9
2018-Jun-02 16:30N 25°54' W 080°06'3 5.2
2018-Jun-02 16:00N 25°57' W 080°08'  

Dump ship's entire track history